createdAt,value
2017-03-30T00:00:38.461Z,1019.33
2017-03-30T00:01:47.426Z,1019.36
2017-03-30T00:02:56.475Z,1019.32
2017-03-30T00:04:06.004Z,1019.28
2017-03-30T00:05:14.962Z,1019.29
2017-03-30T00:06:23.913Z,1019.28
2017-03-30T00:07:32.871Z,1019.29
2017-03-30T00:08:41.825Z,1019.31
2017-03-30T00:09:51.030Z,1019.28
2017-03-30T00:10:59.985Z,1019.26
2017-03-30T00:12:08.944Z,1019.25
2017-03-30T00:13:17.901Z,1019.27
2017-03-30T00:14:26.853Z,1019.29
2017-03-30T00:15:36.061Z,1019.31
2017-03-30T00:16:45.017Z,1019.33
2017-03-30T00:17:53.976Z,1019.35
2017-03-30T00:19:02.933Z,1019.33
2017-03-30T00:20:11.887Z,1019.34
2017-03-30T00:21:21.093Z,1019.3
2017-03-30T00:22:30.052Z,1019.36
2017-03-30T00:23:39.008Z,1019.33
2017-03-30T00:24:47.959Z,1019.31
2017-03-30T00:25:56.947Z,1019.31
2017-03-30T00:27:06.162Z,1019.33
2017-03-30T00:28:15.122Z,1019.32
2017-03-30T00:29:24.161Z,1019.3
2017-03-30T00:30:33.111Z,1019.31
2017-03-30T00:31:42.066Z,1019.33
2017-03-30T00:32:51.274Z,1019.33
2017-03-30T00:34:00.226Z,1019.28
2017-03-30T00:35:09.180Z,1019.26
2017-03-30T00:36:18.138Z,1019.28
2017-03-30T00:37:27.094Z,1019.25
2017-03-30T00:38:36.300Z,1019.29
2017-03-30T00:39:45.261Z,1019.28
2017-03-30T00:40:54.215Z,1019.27
2017-03-30T00:42:03.171Z,1019.28
2017-03-30T00:43:12.122Z,1019.27
2017-03-30T00:44:21.328Z,1019.27
2017-03-30T00:45:30.282Z,1019.25
2017-03-30T00:46:39.235Z,1019.28
2017-03-30T00:47:48.187Z,1019.28
2017-03-30T00:48:57.170Z,1019.27
2017-03-30T00:50:06.380Z,1019.27
2017-03-30T00:51:15.419Z,1019.29
2017-03-30T00:52:24.465Z,1019.28
2017-03-30T00:53:33.420Z,1019.27
2017-03-30T00:54:42.379Z,1019.25
2017-03-30T00:55:51.582Z,1019.31
2017-03-30T00:57:00.533Z,1019.3
2017-03-30T00:58:09.491Z,1019.33
2017-03-30T00:59:18.530Z,1019.32
2017-03-30T01:00:27.482Z,1019.32
2017-03-30T01:01:36.687Z,1019.31
2017-03-30T01:02:45.643Z,1019.3
2017-03-30T01:03:54.595Z,1019.3
2017-03-30T01:05:03.557Z,1019.32
2017-03-30T01:06:12.514Z,1019.33
2017-03-30T01:07:21.723Z,1019.33
2017-03-30T01:08:30.676Z,1019.32
2017-03-30T01:09:39.637Z,1019.3
2017-03-30T01:10:48.600Z,1019.28
2017-03-30T01:11:57.555Z,1019.26
2017-03-30T01:13:06.759Z,1019.26
2017-03-30T01:14:15.711Z,1019.28
2017-03-30T01:15:24.667Z,1019.28
2017-03-30T01:16:33.624Z,1019.28
2017-03-30T01:17:42.600Z,1019.31
2017-03-30T01:18:51.816Z,1019.29
2017-03-30T01:20:00.790Z,1019.29
2017-03-30T01:21:09.747Z,1019.31
2017-03-30T01:22:18.793Z,1019.3
2017-03-30T01:23:27.748Z,1019.33
2017-03-30T01:24:37.034Z,1019.37
2017-03-30T01:25:45.992Z,1019.4
2017-03-30T01:26:55.037Z,1019.37
2017-03-30T01:28:03.996Z,1019.35
2017-03-30T01:29:12.951Z,1019.32
2017-03-30T01:30:22.155Z,1019.33
2017-03-30T01:31:31.115Z,1019.29
2017-03-30T01:32:40.070Z,1019.26
2017-03-30T01:33:49.025Z,1019.24
2017-03-30T01:34:57.982Z,1019.24
2017-03-30T01:36:07.190Z,1019.21
2017-03-30T01:37:16.141Z,1019.25
2017-03-30T01:38:25.094Z,1019.2
2017-03-30T01:39:34.046Z,1019.21
2017-03-30T01:40:42.999Z,1019.2
2017-03-30T01:41:52.207Z,1019.2
2017-03-30T01:43:01.179Z,1019.23
2017-03-30T01:44:10.130Z,1019.23
2017-03-30T01:45:19.089Z,1019.27
2017-03-30T01:46:28.051Z,1019.22
2017-03-30T01:47:37.267Z,1019.23
2017-03-30T01:48:46.223Z,1019.28
2017-03-30T01:49:55.181Z,1019.28
2017-03-30T01:51:04.233Z,1019.29
2017-03-30T01:52:13.185Z,1019.29
2017-03-30T01:53:22.392Z,1019.32
2017-03-30T01:54:31.345Z,1019.28
2017-03-30T01:55:40.301Z,1019.29
2017-03-30T01:56:49.255Z,1019.27
2017-03-30T01:57:58.208Z,1019.27
2017-03-30T01:59:07.413Z,1019.26
2017-03-30T02:00:16.361Z,1019.25
2017-03-30T02:01:25.322Z,1019.27
2017-03-30T02:02:34.280Z,1019.26
2017-03-30T02:03:43.233Z,1019.26
2017-03-30T02:04:52.438Z,1019.26
2017-03-30T02:06:01.398Z,1019.3
2017-03-30T02:07:10.354Z,1019.32
2017-03-30T02:08:19.305Z,1019.34
2017-03-30T02:09:28.255Z,1019.35
2017-03-30T02:10:37.564Z,1019.37
2017-03-30T02:11:46.514Z,1019.38
2017-03-30T02:12:55.470Z,1019.39
2017-03-30T02:14:04.512Z,1019.4
2017-03-30T02:15:13.465Z,1019.42
2017-03-30T02:16:22.673Z,1019.4
2017-03-30T02:17:31.626Z,1019.41
2017-03-30T02:18:40.579Z,1019.41
2017-03-30T02:19:49.533Z,1019.37
2017-03-30T02:20:58.815Z,1019.4
2017-03-30T02:22:08.025Z,1019.38
2017-03-30T02:23:16.981Z,1019.4
2017-03-30T02:24:25.934Z,1019.37
2017-03-30T02:25:34.914Z,1019.37
2017-03-30T02:26:43.867Z,1019.35
2017-03-30T02:27:53.165Z,1019.41
2017-03-30T02:29:02.116Z,1019.39
2017-03-30T02:30:11.075Z,1019.43
2017-03-30T02:31:20.028Z,1019.44
2017-03-30T02:32:28.985Z,1019.46
2017-03-30T02:33:38.193Z,1019.44
2017-03-30T02:34:47.154Z,1019.44
2017-03-30T02:35:56.121Z,1019.45
2017-03-30T02:37:05.725Z,1019.44
2017-03-30T02:38:14.768Z,1019.44
2017-03-30T02:39:23.970Z,1019.47
2017-03-30T02:40:32.924Z,1019.48
2017-03-30T02:41:41.884Z,1019.47
2017-03-30T02:42:50.848Z,1019.48
2017-03-30T02:43:59.805Z,1019.5
2017-03-30T02:45:09.010Z,1019.52
2017-03-30T02:46:18.049Z,1019.53
2017-03-30T02:47:27.021Z,1019.55
2017-03-30T02:48:35.974Z,1019.51
2017-03-30T02:49:44.924Z,1019.49
2017-03-30T02:50:54.130Z,1019.53
2017-03-30T02:52:03.087Z,1019.5
2017-03-30T02:53:12.048Z,1019.5
2017-03-30T02:54:21.007Z,1019.52
2017-03-30T02:55:29.995Z,1019.51
2017-03-30T02:56:39.209Z,1019.52
2017-03-30T02:57:48.166Z,1019.49
2017-03-30T02:58:57.121Z,1019.48
2017-03-30T03:00:06.077Z,1019.54
2017-03-30T03:01:15.039Z,1019.55
2017-03-30T03:02:24.240Z,1019.61
2017-03-30T03:03:33.194Z,1019.56
2017-03-30T03:04:42.237Z,1019.58
2017-03-30T03:05:51.191Z,1019.58
2017-03-30T03:07:00.149Z,1019.56
2017-03-30T03:08:09.356Z,1019.54
2017-03-30T03:09:18.312Z,1019.53
2017-03-30T03:10:27.273Z,1019.53
2017-03-30T03:11:36.258Z,1019.53
2017-03-30T03:12:45.226Z,1019.52
2017-03-30T03:13:54.435Z,1019.54
2017-03-30T03:15:03.389Z,1019.54
2017-03-30T03:16:12.344Z,1019.55
2017-03-30T03:17:21.301Z,1019.52
2017-03-30T03:18:30.255Z,1019.49
2017-03-30T03:19:39.456Z,1019.51
2017-03-30T03:20:48.405Z,1019.51
2017-03-30T03:21:57.358Z,1019.49
2017-03-30T03:23:06.642Z,1019.45
2017-03-30T03:24:15.689Z,1019.43
2017-03-30T03:25:24.891Z,1019.48
2017-03-30T03:26:33.845Z,1019.44
2017-03-30T03:27:42.885Z,1019.43
2017-03-30T03:28:51.834Z,1019.43
2017-03-30T03:30:00.789Z,1019.39
2017-03-30T03:31:10.084Z,1019.44
2017-03-30T03:32:19.043Z,1019.45
2017-03-30T03:33:27.999Z,1019.45
2017-03-30T03:34:36.984Z,1019.47
2017-03-30T03:35:45.944Z,1019.47
2017-03-30T03:36:55.150Z,1019.49
2017-03-30T03:38:04.117Z,1019.5
2017-03-30T03:39:13.087Z,1019.52
2017-03-30T03:40:22.042Z,1019.55
2017-03-30T03:41:30.990Z,1019.52
2017-03-30T03:42:40.192Z,1019.56
2017-03-30T03:43:49.144Z,1019.53
2017-03-30T03:44:58.107Z,1019.59
2017-03-30T03:46:07.065Z,1019.54
2017-03-30T03:47:16.017Z,1019.51
2017-03-30T03:48:25.222Z,1019.5
2017-03-30T03:49:34.180Z,1019.52
2017-03-30T03:50:43.134Z,1019.57
2017-03-30T03:51:52.698Z,1019.55
2017-03-30T03:53:01.659Z,1019.57
2017-03-30T03:54:10.918Z,1019.6
2017-03-30T03:55:19.878Z,1019.63
2017-03-30T03:56:28.838Z,1019.62
2017-03-30T03:57:37.795Z,1019.65
2017-03-30T03:58:46.751Z,1019.63
2017-03-30T03:59:56.015Z,1019.62
2017-03-30T04:01:05.302Z,1019.67
2017-03-30T04:02:14.256Z,1019.68
2017-03-30T04:03:23.216Z,1019.72
2017-03-30T04:04:32.170Z,1019.63
2017-03-30T04:05:41.755Z,1019.64
2017-03-30T04:06:50.712Z,1019.66
2017-03-30T04:07:59.673Z,1019.66
2017-03-30T04:09:08.633Z,1019.69
2017-03-30T04:10:17.762Z,1019.68
2017-03-30T04:11:27.015Z,1019.69
2017-03-30T04:12:35.974Z,1019.71
2017-03-30T04:13:44.926Z,1019.73
2017-03-30T04:14:53.881Z,1019.72
2017-03-30T04:16:03.169Z,1019.74
2017-03-30T04:17:12.425Z,1019.73
2017-03-30T04:18:21.376Z,1019.67
2017-03-30T04:19:30.342Z,1019.67
2017-03-30T04:20:39.386Z,1019.72
2017-03-30T04:21:48.341Z,1019.66
2017-03-30T04:22:57.598Z,1019.68
2017-03-30T04:24:06.553Z,1019.68
2017-03-30T04:25:15.513Z,1019.67
2017-03-30T04:26:24.479Z,1019.7
2017-03-30T04:27:33.438Z,1019.68
2017-03-30T04:28:42.697Z,1019.67
2017-03-30T04:29:51.656Z,1019.72
2017-03-30T04:31:00.942Z,1019.76
2017-03-30T04:32:09.893Z,1019.73
2017-03-30T04:33:18.959Z,1019.71
2017-03-30T04:34:28.166Z,1019.75
2017-03-30T04:35:37.129Z,1019.76
2017-03-30T04:36:46.091Z,1019.73
2017-03-30T04:37:55.051Z,1019.74
2017-03-30T04:39:04.034Z,1019.74
2017-03-30T04:40:13.287Z,1019.76
2017-03-30T04:41:22.244Z,1019.73
2017-03-30T04:42:31.197Z,1019.73
2017-03-30T04:43:40.153Z,1019.72
2017-03-30T04:44:49.106Z,1019.73
2017-03-30T04:45:58.362Z,1019.74
2017-03-30T04:47:07.318Z,1019.69
2017-03-30T04:48:16.273Z,1019.72
2017-03-30T04:49:25.229Z,1019.71
2017-03-30T04:50:34.183Z,1019.76
2017-03-30T04:51:43.437Z,1019.72
2017-03-30T04:52:52.390Z,1019.74
2017-03-30T04:54:01.350Z,1019.74
2017-03-30T04:55:10.300Z,1019.74
2017-03-30T04:56:19.254Z,1019.76
2017-03-30T04:57:28.510Z,1019.75
2017-03-30T04:58:37.463Z,1019.74
2017-03-30T04:59:46.414Z,1019.79
2017-03-30T05:00:55.374Z,1019.79
2017-03-30T05:02:04.342Z,1019.77
2017-03-30T05:03:13.603Z,1019.77
2017-03-30T05:04:22.641Z,1019.79
2017-03-30T05:05:31.600Z,1019.78
2017-03-30T05:06:40.555Z,1019.78
2017-03-30T05:07:49.511Z,1019.78
2017-03-30T05:08:59.103Z,1019.77
2017-03-30T05:10:08.060Z,1019.78
2017-03-30T05:11:17.012Z,1019.78
2017-03-30T05:12:25.968Z,1019.77
2017-03-30T05:13:34.929Z,1019.79
2017-03-30T05:14:44.268Z,1019.78
2017-03-30T05:15:53.314Z,1019.76
2017-03-30T05:17:02.264Z,1019.79
2017-03-30T05:18:11.218Z,1019.78
2017-03-30T05:19:20.262Z,1019.8
2017-03-30T05:20:29.516Z,1019.8
2017-03-30T05:21:38.477Z,1019.81
2017-03-30T05:22:47.762Z,1019.78
2017-03-30T05:23:56.723Z,1019.81
2017-03-30T05:25:05.677Z,1019.8
2017-03-30T05:26:14.940Z,1019.78
2017-03-30T05:27:23.902Z,1019.82
2017-03-30T05:28:32.854Z,1019.83
2017-03-30T05:29:41.817Z,1019.83
2017-03-30T05:30:50.773Z,1019.87
2017-03-30T05:32:00.028Z,1019.86
2017-03-30T05:33:08.982Z,1019.87
2017-03-30T05:34:17.937Z,1019.87
2017-03-30T05:35:26.979Z,1019.92
2017-03-30T05:36:35.932Z,1019.88
2017-03-30T05:37:45.137Z,1019.88
2017-03-30T05:38:54.093Z,1019.92
2017-03-30T05:40:03.051Z,1019.89
2017-03-30T05:41:12.019Z,1019.87
2017-03-30T05:42:20.974Z,1019.86
2017-03-30T05:43:30.310Z,1019.88
2017-03-30T05:44:39.262Z,1019.9
2017-03-30T05:45:48.218Z,1019.88
2017-03-30T05:46:57.257Z,1019.87
2017-03-30T05:48:06.213Z,1019.93
2017-03-30T05:49:15.418Z,1019.9
2017-03-30T05:50:24.370Z,1019.9
2017-03-30T05:51:33.332Z,1019.92
2017-03-30T05:52:42.614Z,1019.92
2017-03-30T05:53:51.656Z,1019.91
2017-03-30T05:55:01.196Z,1019.94
2017-03-30T05:56:10.157Z,1019.93
2017-03-30T05:57:19.393Z,1019.96
2017-03-30T05:58:31.704Z,1019.93
2017-03-30T05:59:40.689Z,1019.94
2017-03-30T06:00:49.943Z,1019.95
2017-03-30T06:01:58.898Z,1019.99
2017-03-30T06:03:07.850Z,1019.99
2017-03-30T06:04:16.806Z,1019.99
2017-03-30T06:05:25.761Z,1019.99
2017-03-30T06:06:35.103Z,1019.95
2017-03-30T06:07:44.159Z,1019.99
2017-03-30T06:08:53.196Z,1019.96
2017-03-30T06:10:02.148Z,1020
2017-03-30T06:11:11.108Z,1019.99
2017-03-30T06:12:20.367Z,1019.98
2017-03-30T06:13:29.329Z,1020.02
2017-03-30T06:14:38.341Z,1020.05
2017-03-30T06:15:47.387Z,1020.01
2017-03-30T06:16:56.747Z,1020.03
2017-03-30T06:18:06.046Z,1020
2017-03-30T06:19:15.046Z,1019.97
2017-03-30T06:20:24.424Z,1020
2017-03-30T06:21:33.373Z,1020
2017-03-30T06:22:42.330Z,1019.98
2017-03-30T06:23:51.589Z,1019.99
2017-03-30T06:25:00.575Z,1019.99
2017-03-30T06:26:09.553Z,1019.99
2017-03-30T06:27:18.535Z,1020.01
2017-03-30T06:28:27.523Z,1020
2017-03-30T06:29:36.804Z,1020.02
2017-03-30T06:30:45.779Z,1019.98
2017-03-30T06:31:54.759Z,1019.95
2017-03-30T06:33:03.739Z,1019.98
2017-03-30T06:34:12.724Z,1020
2017-03-30T06:35:22.003Z,1020.02
2017-03-30T06:36:30.983Z,1019.97
2017-03-30T06:37:39.968Z,1020.01
2017-03-30T06:38:48.944Z,1019.97
2017-03-30T06:39:57.927Z,1020.03
2017-03-30T06:41:07.204Z,1020.03
2017-03-30T06:42:16.196Z,1020.04
2017-03-30T06:43:25.167Z,1020.01
2017-03-30T06:44:34.142Z,1020.03
2017-03-30T06:45:43.117Z,1020.01
2017-03-30T06:46:52.403Z,1020.01
2017-03-30T06:48:01.382Z,1020.04
2017-03-30T06:49:10.367Z,1020.05
2017-03-30T06:50:19.353Z,1020.05
2017-03-30T06:51:28.333Z,1020.04
2017-03-30T06:52:37.610Z,1020.05
2017-03-30T06:53:46.588Z,1020.07
2017-03-30T06:54:55.565Z,1020.14
2017-03-30T06:56:04.550Z,1020.08
2017-03-30T06:57:13.520Z,1020.07
2017-03-30T06:58:22.807Z,1020.04
2017-03-30T06:59:31.799Z,1020.08
2017-03-30T07:00:40.777Z,1020.11
2017-03-30T07:01:49.849Z,1020.13
2017-03-30T07:02:58.837Z,1020.14
2017-03-30T07:04:08.203Z,1020.15
2017-03-30T07:05:17.182Z,1020.16
2017-03-30T07:06:26.160Z,1020.16
2017-03-30T07:07:35.138Z,1020.15
2017-03-30T07:08:44.120Z,1020.17
2017-03-30T07:09:53.411Z,1020.21
2017-03-30T07:11:02.393Z,1020.21
2017-03-30T07:12:11.378Z,1020.19
2017-03-30T07:13:20.355Z,1020.22
2017-03-30T07:14:29.344Z,1020.21
2017-03-30T07:15:38.626Z,1020.23
2017-03-30T07:16:47.606Z,1020.21
2017-03-30T07:17:56.673Z,1020.22
2017-03-30T07:19:05.989Z,1020.24
2017-03-30T07:20:14.968Z,1020.23
2017-03-30T07:21:24.245Z,1020.21
2017-03-30T07:22:33.225Z,1020.26
2017-03-30T07:23:42.208Z,1020.26
2017-03-30T07:24:51.192Z,1020.26
2017-03-30T07:26:00.172Z,1020.27
2017-03-30T07:27:09.457Z,1020.3
2017-03-30T07:28:18.437Z,1020.26
2017-03-30T07:29:27.412Z,1020.3
2017-03-30T07:30:36.570Z,1020.31
2017-03-30T07:31:45.642Z,1020.3
2017-03-30T07:32:54.925Z,1020.29
2017-03-30T07:34:03.929Z,1020.34
2017-03-30T07:35:12.907Z,1020.33
2017-03-30T07:36:21.981Z,1020.35
2017-03-30T07:37:30.965Z,1020.33
2017-03-30T07:38:40.241Z,1020.36
2017-03-30T07:39:49.225Z,1020.35
2017-03-30T07:40:58.291Z,1020.38
2017-03-30T07:42:07.361Z,1020.36
2017-03-30T07:43:16.341Z,1020.4
2017-03-30T07:44:25.621Z,1020.42
2017-03-30T07:45:34.601Z,1020.39
2017-03-30T07:46:43.680Z,1020.4
2017-03-30T07:47:52.667Z,1020.47
2017-03-30T07:49:01.657Z,1020.45
2017-03-30T07:50:10.930Z,1020.42
2017-03-30T07:51:19.916Z,1020.45
2017-03-30T07:52:28.899Z,1020.43
2017-03-30T07:53:37.895Z,1020.46
2017-03-30T07:54:46.886Z,1020.48
2017-03-30T07:55:56.193Z,1020.47
2017-03-30T07:57:05.262Z,1020.52
2017-03-30T07:58:14.248Z,1020.54
2017-03-30T07:59:23.225Z,1020.57
2017-03-30T08:00:32.203Z,1020.52
2017-03-30T08:01:41.481Z,1020.56
2017-03-30T08:02:50.461Z,1020.53
2017-03-30T08:03:59.524Z,1020.53
2017-03-30T08:05:08.503Z,1020.53
2017-03-30T08:06:17.483Z,1020.51
2017-03-30T08:07:26.800Z,1020.55
2017-03-30T08:08:35.778Z,1020.53
2017-03-30T08:09:44.759Z,1020.53
2017-03-30T08:10:53.742Z,1020.56
2017-03-30T08:12:02.806Z,1020.53
2017-03-30T08:13:12.096Z,1020.56
2017-03-30T08:14:21.075Z,1020.58
2017-03-30T08:15:30.040Z,1020.62
2017-03-30T08:16:39.053Z,1020.65
2017-03-30T08:17:48.007Z,1020.58
2017-03-30T08:18:57.260Z,1020.61
2017-03-30T08:20:06.218Z,1020.61
2017-03-30T08:21:15.179Z,1020.62
2017-03-30T08:22:24.137Z,1020.64
2017-03-30T08:23:33.096Z,1020.65
2017-03-30T08:24:42.463Z,1020.68
2017-03-30T08:25:51.485Z,1020.68
2017-03-30T08:27:01.226Z,1020.71
2017-03-30T08:28:10.186Z,1020.67
2017-03-30T08:29:19.146Z,1020.71
2017-03-30T08:30:28.402Z,1020.69
2017-03-30T08:31:37.540Z,1020.7
2017-03-30T08:32:46.495Z,1020.72
2017-03-30T08:33:55.452Z,1020.74
2017-03-30T08:35:04.411Z,1020.73
2017-03-30T08:36:13.719Z,1020.73
2017-03-30T08:37:22.679Z,1020.74
2017-03-30T08:38:31.721Z,1020.76
2017-03-30T08:39:40.680Z,1020.73
2017-03-30T08:40:49.643Z,1020.74
2017-03-30T08:41:58.939Z,1020.75
2017-03-30T08:43:08.301Z,1020.7
2017-03-30T08:44:19.655Z,1020.73
2017-03-30T08:45:42.981Z,1020.74
2017-03-30T08:46:52.059Z,1020.73
2017-03-30T08:48:01.318Z,1020.75
2017-03-30T08:49:10.416Z,1020.74
2017-03-30T08:50:19.444Z,1020.74
2017-03-30T08:51:28.493Z,1020.73
2017-03-30T08:52:37.956Z,1020.75
2017-03-30T08:53:47.176Z,1020.74
2017-03-30T08:54:56.291Z,1020.77
2017-03-30T08:56:05.389Z,1020.76
2017-03-30T08:57:14.349Z,1020.79
2017-03-30T08:58:23.615Z,1020.79
2017-03-30T08:59:32.581Z,1020.83
2017-03-30T09:00:41.543Z,1020.81
2017-03-30T09:01:50.495Z,1020.85
2017-03-30T09:02:59.452Z,1020.82
2017-03-30T09:04:08.710Z,1020.81
2017-03-30T09:05:17.757Z,1020.77
2017-03-30T09:06:26.803Z,1020.8
2017-03-30T09:07:35.762Z,1020.79
2017-03-30T09:08:44.718Z,1020.82
2017-03-30T09:09:54.092Z,1020.78
2017-03-30T09:11:03.137Z,1020.81
2017-03-30T09:12:12.099Z,1020.83
2017-03-30T09:13:21.379Z,1020.85
2017-03-30T09:14:30.354Z,1020.8
2017-03-30T09:15:39.565Z,1020.84
2017-03-30T09:16:48.617Z,1020.83
2017-03-30T09:17:57.660Z,1020.83
2017-03-30T09:19:06.623Z,1020.81
2017-03-30T09:20:15.588Z,1020.86
2017-03-30T09:21:24.842Z,1020.82
2017-03-30T09:22:33.804Z,1020.85
2017-03-30T09:23:42.851Z,1020.81
2017-03-30T09:24:51.805Z,1020.82
2017-03-30T09:26:01.178Z,1020.76
2017-03-30T09:27:10.438Z,1020.79
2017-03-30T09:28:19.405Z,1020.74
2017-03-30T09:29:28.360Z,1020.72
2017-03-30T09:30:37.319Z,1020.68
2017-03-30T09:31:46.363Z,1020.7
2017-03-30T09:32:55.572Z,1020.69
2017-03-30T09:34:04.524Z,1020.72
2017-03-30T09:35:13.565Z,1020.74
2017-03-30T09:36:22.519Z,1020.65
2017-03-30T09:37:31.475Z,1020.66
2017-03-30T09:38:40.732Z,1020.68
2017-03-30T09:39:49.697Z,1020.71
2017-03-30T09:40:58.654Z,1020.72
2017-03-30T09:42:07.613Z,1020.65
2017-03-30T09:43:16.608Z,1020.65
2017-03-30T09:44:25.866Z,1020.65
2017-03-30T09:45:34.919Z,1020.66
2017-03-30T09:46:43.881Z,1020.67
2017-03-30T09:47:52.837Z,1020.72
2017-03-30T09:49:01.801Z,1020.69
2017-03-30T09:50:11.063Z,1020.71
2017-03-30T09:51:20.027Z,1020.66
2017-03-30T09:52:28.989Z,1020.67
2017-03-30T09:53:37.947Z,1020.66
2017-03-30T09:54:46.901Z,1020.65
2017-03-30T09:55:56.157Z,1020.63
2017-03-30T09:57:05.115Z,1020.64
2017-03-30T09:58:14.249Z,1020.67
2017-03-30T09:59:23.219Z,1020.67
2017-03-30T10:00:32.267Z,1020.69
2017-03-30T10:01:41.615Z,1020.64
2017-03-30T10:02:50.585Z,1020.7
2017-03-30T10:03:59.544Z,1020.68
2017-03-30T10:05:08.499Z,1020.67
2017-03-30T10:06:17.458Z,1020.67
2017-03-30T10:07:26.718Z,1020.69
2017-03-30T10:08:35.678Z,1020.66
2017-03-30T10:09:44.631Z,1020.64
2017-03-30T10:10:53.681Z,1020.65
2017-03-30T10:12:02.638Z,1020.65
2017-03-30T10:13:12.000Z,1020.65
2017-03-30T10:14:20.969Z,1020.61
2017-03-30T10:15:29.928Z,1020.61
2017-03-30T10:16:38.887Z,1020.62
2017-03-30T10:17:47.844Z,1020.57
2017-03-30T10:18:57.105Z,1020.59
2017-03-30T10:20:06.068Z,1020.57
2017-03-30T10:21:15.114Z,1020.59
2017-03-30T10:22:24.081Z,1020.61
2017-03-30T10:23:33.047Z,1020.58
2017-03-30T10:24:42.307Z,1020.62
2017-03-30T10:25:51.351Z,1020.58
2017-03-30T10:27:00.486Z,1020.54
2017-03-30T10:28:09.448Z,1020.51
2017-03-30T10:29:18.407Z,1020.52
2017-03-30T10:30:27.794Z,1020.53
2017-03-30T10:31:36.763Z,1020.51
2017-03-30T10:32:45.725Z,1020.51
2017-03-30T10:33:54.866Z,1020.51
2017-03-30T10:35:03.822Z,1020.52
2017-03-30T10:36:13.166Z,1020.56
2017-03-30T10:37:22.123Z,1020.61
2017-03-30T10:38:31.086Z,1020.52
2017-03-30T10:39:40.252Z,1020.52
2017-03-30T10:40:49.212Z,1020.54
2017-03-30T10:41:58.574Z,1020.47
2017-03-30T10:43:08.523Z,1020.45
2017-03-30T10:44:18.136Z,1020.47
2017-03-30T10:45:27.098Z,1020.47
2017-03-30T10:46:36.063Z,1020.44
2017-03-30T10:47:45.328Z,1020.45
2017-03-30T10:48:54.291Z,1020.44
2017-03-30T10:50:03.253Z,1020.42
2017-03-30T10:51:12.300Z,1020.41
2017-03-30T10:52:21.259Z,1020.39
2017-03-30T10:53:30.522Z,1020.4
2017-03-30T10:54:39.576Z,1020.35
2017-03-30T10:55:48.533Z,1020.36
2017-03-30T10:56:57.582Z,1020.31
2017-03-30T10:58:06.548Z,1020.33
2017-03-30T10:59:15.812Z,1020.35
2017-03-30T11:00:24.824Z,1020.32
2017-03-30T11:01:33.786Z,1020.3
2017-03-30T11:02:42.751Z,1020.32
2017-03-30T11:03:51.724Z,1020.31
2017-03-30T11:05:00.992Z,1020.32
2017-03-30T11:06:09.951Z,1020.29
2017-03-30T11:07:18.941Z,1020.28
2017-03-30T11:08:27.906Z,1020.25
2017-03-30T11:09:36.860Z,1020.26
2017-03-30T11:10:46.137Z,1020.21
2017-03-30T11:11:55.108Z,1020.24
2017-03-30T11:13:04.070Z,1020.23
2017-03-30T11:14:13.034Z,1020.18
2017-03-30T11:15:21.994Z,1020.24
2017-03-30T11:16:31.256Z,1020.24
2017-03-30T11:17:40.220Z,1020.2
2017-03-30T11:18:49.189Z,1020.24
2017-03-30T11:19:58.181Z,1020.26
2017-03-30T11:21:07.232Z,1020.28
2017-03-30T11:22:16.496Z,1020.24
2017-03-30T11:23:25.455Z,1020.22
2017-03-30T11:24:34.413Z,1020.21
2017-03-30T11:25:43.372Z,1020.2
2017-03-30T11:26:52.334Z,1020.19
2017-03-30T11:28:01.543Z,1020.16
2017-03-30T11:29:10.504Z,1020.19
2017-03-30T11:30:19.469Z,1020.18
2017-03-30T11:31:28.435Z,1020.12
2017-03-30T11:32:37.395Z,1020.14
2017-03-30T11:33:46.653Z,1020.14
2017-03-30T11:34:55.621Z,1020.15
2017-03-30T11:36:04.666Z,1020.17
2017-03-30T11:37:13.714Z,1020.16
2017-03-30T11:38:22.674Z,1020.18
2017-03-30T11:39:31.934Z,1020.14
2017-03-30T11:40:40.901Z,1020.18
2017-03-30T11:41:49.864Z,1020.15
2017-03-30T11:42:58.834Z,1020.18
2017-03-30T11:44:07.791Z,1020.16
2017-03-30T11:45:17.047Z,1020.17
2017-03-30T11:46:26.004Z,1020.27
2017-03-30T11:47:34.963Z,1020.2
2017-03-30T11:48:44.008Z,1020.19
2017-03-30T11:49:52.973Z,1020.17
2017-03-30T11:51:02.320Z,1020.21
2017-03-30T11:52:11.281Z,1020.18
2017-03-30T11:53:20.246Z,1020.18
2017-03-30T11:54:29.226Z,1020.16
2017-03-30T11:55:38.511Z,1020.2
2017-03-30T11:56:47.769Z,1020.17
2017-03-30T11:57:56.725Z,1020.21
2017-03-30T11:59:05.681Z,1020.23
2017-03-30T12:00:14.642Z,1020.18
2017-03-30T12:01:23.606Z,1020.17
2017-03-30T12:02:32.890Z,1020.17
2017-03-30T12:03:41.853Z,1020.14
2017-03-30T12:04:50.807Z,1020.14
2017-03-30T12:05:59.770Z,1020.17
2017-03-30T12:07:08.726Z,1020.13
2017-03-30T12:08:17.934Z,1020.12
2017-03-30T12:09:26.893Z,1020.13
2017-03-30T12:10:35.854Z,1020.14
2017-03-30T12:11:44.814Z,1020.15
2017-03-30T12:12:53.773Z,1020.16
2017-03-30T12:14:02.979Z,1020.15
2017-03-30T12:15:12.026Z,1020.16
2017-03-30T12:16:20.980Z,1020.18
2017-03-30T12:17:29.935Z,1020.15
2017-03-30T12:18:38.892Z,1020.13
2017-03-30T12:19:48.172Z,1020.1
2017-03-30T12:20:57.131Z,1020.05
2017-03-30T12:22:06.175Z,1020.04
2017-03-30T12:23:15.132Z,1020.05
2017-03-30T12:24:24.089Z,1020.07
2017-03-30T12:25:33.301Z,1020.06
2017-03-30T12:26:42.253Z,1019.99
2017-03-30T12:27:51.213Z,1019.99
2017-03-30T12:29:00.495Z,1019.99
2017-03-30T12:30:09.458Z,1019.97
2017-03-30T12:31:18.719Z,1019.95
2017-03-30T12:32:27.687Z,1019.95
2017-03-30T12:33:36.645Z,1019.91
2017-03-30T12:34:45.605Z,1019.93
2017-03-30T12:35:54.569Z,1019.91
2017-03-30T12:37:03.836Z,1019.88
2017-03-30T12:38:12.796Z,1019.89
2017-03-30T12:39:21.843Z,1019.85
2017-03-30T12:40:30.808Z,1019.84
2017-03-30T12:41:39.780Z,1019.81
2017-03-30T12:42:49.138Z,1019.79
2017-03-30T12:43:58.102Z,1019.82
2017-03-30T12:45:07.061Z,1019.8
2017-03-30T12:46:16.112Z,1019.78
2017-03-30T12:47:25.068Z,1019.74
2017-03-30T12:48:34.274Z,1019.7
2017-03-30T12:49:43.241Z,1019.69
2017-03-30T12:50:52.201Z,1019.69
2017-03-30T12:52:01.160Z,1019.69
2017-03-30T12:53:10.120Z,1019.69
2017-03-30T12:54:19.337Z,1019.63
2017-03-30T12:55:28.299Z,1019.7
2017-03-30T12:56:37.431Z,1019.67
2017-03-30T12:57:46.403Z,1019.64
2017-03-30T12:58:55.371Z,1019.63
2017-03-30T13:00:04.632Z,1019.64
2017-03-30T13:01:13.592Z,1019.6
2017-03-30T13:02:22.551Z,1019.58
2017-03-30T13:03:31.508Z,1019.58
2017-03-30T13:04:40.476Z,1019.55
2017-03-30T13:05:49.734Z,1019.59
2017-03-30T13:06:58.696Z,1019.6
2017-03-30T13:08:07.745Z,1019.6
2017-03-30T13:09:16.791Z,1019.59
2017-03-30T13:10:25.752Z,1019.57
2017-03-30T13:11:35.013Z,1019.6
2017-03-30T13:12:44.064Z,1019.58
2017-03-30T13:13:53.019Z,1019.56
2017-03-30T13:15:01.976Z,1019.45
2017-03-30T13:16:10.944Z,1019.49
2017-03-30T13:17:20.203Z,1019.48
2017-03-30T13:18:29.163Z,1019.46
2017-03-30T13:19:38.126Z,1019.44
2017-03-30T13:20:47.092Z,1019.44
2017-03-30T13:21:56.066Z,1019.44
2017-03-30T13:23:05.604Z,1019.38
2017-03-30T13:24:14.652Z,1019.36
2017-03-30T13:25:23.606Z,1019.36
2017-03-30T13:26:32.563Z,1019.33
2017-03-30T13:27:41.619Z,1019.27
2017-03-30T13:28:50.828Z,1019.31
2017-03-30T13:29:59.787Z,1019.3
2017-03-30T13:31:08.749Z,1019.28
2017-03-30T13:32:17.793Z,1019.32
2017-03-30T13:33:26.750Z,1019.27
2017-03-30T13:34:35.959Z,1019.31
2017-03-30T13:35:44.950Z,1019.32
2017-03-30T13:36:53.906Z,1019.3
2017-03-30T13:38:03.215Z,1019.3
2017-03-30T13:39:12.173Z,1019.25
2017-03-30T13:40:21.432Z,1019.23
2017-03-30T13:41:30.390Z,1019.22
2017-03-30T13:42:39.354Z,1019.17
2017-03-30T13:43:48.317Z,1019.2
2017-03-30T13:44:57.278Z,1019.2
2017-03-30T13:46:06.538Z,1019.19
2017-03-30T13:47:15.525Z,1019.21
2017-03-30T13:48:24.573Z,1019.21
2017-03-30T13:49:33.620Z,1019.22
2017-03-30T13:50:42.580Z,1019.25
2017-03-30T13:51:51.962Z,1019.24
2017-03-30T13:53:00.922Z,1019.28
2017-03-30T13:54:09.882Z,1019.25
2017-03-30T13:55:18.838Z,1019.23
2017-03-30T13:56:27.798Z,1019.22
2017-03-30T13:57:37.062Z,1019.15
2017-03-30T13:58:46.025Z,1019.19